Time;durP1;ratioP1;P1;durP2;ratioP2;P2;SDS_P1;SDS_P2;PMS_P1;PMS_P2;Temp;Humidity;BMP_temperature;BMP_pressure;BME280_temperature;BME280_humidity;BME280_pressure;Samples;Min_cycle;Max_cycle;Signal;HPM_P1;HPM_P2
2021/05/04 00:01:57;;;;;;;1.02;0.63;;;21.60;52.10;;;;;;5095864;28;20044;-38
2021/05/04 00:04:23;;;;;;;3.33;0.70;;;21.60;52.50;;;;;;5096482;28;20044;-41
2021/05/04 00:06:51;;;;;;;3.33;0.90;;;21.60;52.50;;;;;;5096430;28;20040;-39
2021/05/04 00:09:16;;;;;;;0.90;0.73;;;21.70;52.10;;;;;;5099280;28;20047;-37
2021/05/04 00:11:42;;;;;;;1.20;0.50;;;21.70;51.70;;;;;;5093205;28;20036;-39
2021/05/04 00:14:07;;;;;;;1.15;0.57;;;22.00;51.60;;;;;;5091167;28;20032;-38
2021/05/04 00:16:33;;;;;;;3.33;1.08;;;21.80;51.30;;;;;;5092361;28;20059;-39
2021/05/04 00:18:59;;;;;;;2.40;0.73;;;21.90;51.20;;;;;;5099138;28;20043;-38
2021/05/04 00:21:24;;;;;;;1.10;0.60;;;21.80;51.30;;;;;;5096529;28;20068;-36
2021/05/04 00:23:50;;;;;;;0.82;0.60;;;21.80;51.40;;;;;;5094348;28;20056;-35
2021/05/04 00:26:15;;;;;;;1.30;0.60;;;21.70;52.00;;;;;;5090873;28;20101;-38
2021/05/04 00:28:41;;;;;;;1.52;0.60;;;21.70;51.60;;;;;;5093720;28;20055;-40
2021/05/04 00:31:06;;;;;;;0.90;0.50;;;21.80;51.70;;;;;;5095360;28;20040;-40
2021/05/04 00:33:32;;;;;;;1.02;0.70;;;21.80;51.50;;;;;;5095537;28;20067;-36
2021/05/04 00:35:58;;;;;;;1.38;0.60;;;21.80;51.50;;;;;;5095215;28;20510;-32
2021/05/04 00:38:23;;;;;;;2.47;0.60;;;21.90;51.00;;;;;;5096620;28;20055;-38
2021/05/04 00:40:49;;;;;;;0.50;0.50;;;21.70;51.70;;;;;;5097143;28;20118;-35
2021/05/04 00:43:15;;;;;;;0.65;0.43;;;21.80;51.40;;;;;;5096962;28;20052;-36
2021/05/04 00:45:41;;;;;;;1.35;0.60;;;21.80;51.50;;;;;;5094425;28;20575;-36
2021/05/04 00:48:07;;;;;;;1.30;0.68;;;21.70;51.60;;;;;;5097657;28;20039;-44
2021/05/04 00:50:32;;;;;;;0.70;0.50;;;21.60;52.10;;;;;;5097165;28;20047;-38
2021/05/04 00:52:58;;;;;;;2.83;0.60;;;21.60;52.00;;;;;;5099156;28;20044;-39
2021/05/04 00:55:24;;;;;;;0.75;0.50;;;21.70;51.70;;;;;;5093120;28;20134;-38
2021/05/04 00:57:49;;;;;;;1.25;0.70;;;21.60;52.00;;;;;;5085135;28;20562;-38
2021/05/04 01:00:15;;;;;;;0.45;0.45;;;21.70;51.80;;;;;;5083596;28;20036;-38
2021/05/04 01:02:41;;;;;;;0.68;0.60;;;21.70;51.80;;;;;;5104357;28;20100;-34
2021/05/04 01:05:08;;;;;;;1.92;0.60;;;21.70;52.00;;;;;;5097909;28;20409;-37
2021/05/04 01:07:33;;;;;;;0.43;0.43;;;21.70;51.40;;;;;;5079887;28;20048;-40
2021/05/04 01:09:59;;;;;;;0.80;0.50;;;21.60;51.90;;;;;;5099081;28;20051;-41
2021/05/04 01:12:24;;;;;;;0.60;0.50;;;21.60;51.70;;;;;;5100083;28;20032;-42
2021/05/04 01:14:50;;;;;;;0.85;0.65;;;21.70;51.60;;;;;;5085242;28;20036;-42
2021/05/04 01:17:16;;;;;;;0.80;0.60;;;21.60;51.80;;;;;;5096025;28;20076;-39
2021/05/04 01:19:42;;;;;;;0.70;0.50;;;21.60;51.50;;;;;;5079359;28;20059;-40
2021/05/04 01:22:07;;;;;;;1.13;0.70;;;21.60;51.60;;;;;;5075642;28;20044;-36
2021/05/04 01:24:34;;;;;;;1.08;0.70;;;21.60;51.80;;;;;;5095069;28;20084;-40
2021/05/04 01:27:00;;;;;;;0.75;0.50;;;21.70;51.90;;;;;;5103623;28;20050;-41
2021/05/04 01:29:26;;;;;;;3.08;0.95;;;21.60;51.70;;;;;;5101485;28;20126;-39
2021/05/04 01:31:52;;;;;;;1.55;0.70;;;21.70;51.50;;;;;;5100412;28;20044;-42
2021/05/04 01:34:18;;;;;;;0.45;0.40;;;21.70;51.50;;;;;;5099445;28;20158;-41
2021/05/04 01:36:43;;;;;;;0.60;0.50;;;21.70;51.60;;;;;;5101126;28;20141;-38
2021/05/04 01:39:09;;;;;;;1.52;0.50;;;21.60;51.90;;;;;;5100664;28;20054;-39
2021/05/04 01:41:35;;;;;;;1.17;0.60;;;21.50;52.30;;;;;;5097463;28;20451;-41
2021/05/04 01:44:04;;;;;;;1.83;0.70;;;21.40;52.20;;;;;;5097093;28;20060;-39
2021/05/04 01:46:32;;;;;;;2.00;0.70;;;21.40;52.60;;;;;;5104188;28;20630;-39
2021/05/04 01:49:02;;;;;;;1.05;0.70;;;21.40;52.30;;;;;;5102320;28;20469;-42
2021/05/04 01:51:28;;;;;;;0.85;0.63;;;21.50;52.20;;;;;;5093348;28;20414;-37
2021/05/04 01:53:54;;;;;;;1.60;0.50;;;21.50;51.90;;;;;;5094327;28;20456;-39
2021/05/04 01:56:20;;;;;;;1.08;0.50;;;21.50;51.60;;;;;;5099134;28;20493;-38
2021/05/04 01:58:45;;;;;;;1.20;0.50;;;21.40;52.30;;;;;;5092679;28;20036;-41
2021/05/04 02:01:11;;;;;;;0.90;0.63;;;21.40;52.30;;;;;;5098996;28;20510;-42
2021/05/04 02:03:36;;;;;;;0.90;0.70;;;21.30;53.10;;;;;;5098825;28;20054;-36
2021/05/04 02:06:02;;;;;;;0.60;0.40;;;21.30;52.80;;;;;;5100572;28;20417;-41
2021/05/04 02:08:28;;;;;;;2.10;0.82;;;21.40;52.30;;;;;;5101196;28;20127;-41
2021/05/04 02:10:53;;;;;;;1.73;0.43;;;21.40;52.70;;;;;;5097749;28;24143;-38
2021/05/04 02:13:19;;;;;;;2.25;0.70;;;21.50;52.10;;;;;;5094512;28;20083;-41
2021/05/04 02:15:44;;;;;;;1.13;0.57;;;21.50;52.20;;;;;;5096570;28;20048;-36
2021/05/04 02:18:10;;;;;;;0.82;0.70;;;21.50;52.40;;;;;;5098145;28;20525;-39
2021/05/04 02:20:35;;;;;;;2.13;0.40;;;21.40;52.40;;;;;;5095192;28;20044;-38
2021/05/04 02:23:01;;;;;;;0.50;0.50;;;21.40;52.50;;;;;;5094980;28;20410;-40
2021/05/04 02:25:27;;;;;;;0.68;0.50;;;21.40;52.70;;;;;;5095685;28;20060;-39
2021/05/04 02:27:52;;;;;;;0.98;0.60;;;21.50;51.90;;;;;;5096330;28;20038;-39
2021/05/04 02:30:18;;;;;;;0.82;0.55;;;21.60;51.90;;;;;;5082939;28;20059;-41
2021/05/04 02:32:44;;;;;;;0.57;0.50;;;21.60;52.00;;;;;;5098168;28;20044;-35
2021/05/04 02:35:10;;;;;;;0.52;0.40;;;21.60;51.60;;;;;;5096786;28;20420;-37
2021/05/04 02:37:36;;;;;;;0.80;0.55;;;21.50;52.30;;;;;;5096848;28;20422;-36
2021/05/04 02:40:01;;;;;;;1.00;0.38;;;21.50;52.60;;;;;;5101000;28;20050;-40
2021/05/04 02:42:27;;;;;;;1.65;0.52;;;21.50;52.20;;;;;;5100315;28;20485;-40
2021/05/04 02:44:53;;;;;;;0.75;0.63;;;21.70;52.30;;;;;;5096271;28;20085;-39
2021/05/04 02:47:18;;;;;;;1.73;0.68;;;21.50;52.20;;;;;;5097217;28;20028;-39
2021/05/04 02:49:44;;;;;;;0.40;0.40;;;21.40;52.60;;;;;;5103489;28;20526;-35
2021/05/04 02:52:09;;;;;;;1.15;0.50;;;21.50;52.20;;;;;;5098638;28;20032;-38
2021/05/04 02:54:35;;;;;;;0.75;0.55;;;21.50;52.70;;;;;;5080990;28;20054;-38
2021/05/04 02:57:02;;;;;;;0.57;0.40;;;21.60;52.20;;;;;;5099324;28;20031;-35
2021/05/04 02:59:28;;;;;;;0.93;0.70;;;21.40;52.40;;;;;;5094618;28;20051;-42
2021/05/04 03:01:53;;;;;;;0.50;0.50;;;21.30;52.90;;;;;;5096132;28;20036;-37
2021/05/04 03:04:19;;;;;;;0.40;0.40;;;21.30;53.80;;;;;;5099230;28;20062;-35
2021/05/04 03:06:44;;;;;;;0.55;0.40;;;21.20;53.00;;;;;;5076503;28;20044;-38
2021/05/04 03:09:10;;;;;;;3.47;0.40;;;21.40;53.10;;;;;;5078830;28;20078;-36
2021/05/04 03:11:35;;;;;;;0.73;0.50;;;21.30;52.70;;;;;;5098341;28;20043;-39
2021/05/04 03:14:01;;;;;;;0.75;0.50;;;21.30;52.90;;;;;;5092350;28;20051;-36
2021/05/04 03:16:27;;;;;;;0.90;0.50;;;21.20;53.10;;;;;;5090692;28;20051;-41
2021/05/04 03:18:52;;;;;;;0.47;0.40;;;21.40;52.80;;;;;;5092040;28;20040;-37
2021/05/04 03:21:18;;;;;;;0.60;0.50;;;21.40;52.60;;;;;;5093921;28;20114;-39
2021/05/04 03:23:46;;;;;;;0.50;0.40;;;21.40;52.70;;;;;;5097502;28;20420;-36
2021/05/04 03:26:11;;;;;;;0.65;0.32;;;21.50;52.60;;;;;;5094312;28;20052;-36
2021/05/04 03:28:37;;;;;;;0.55;0.40;;;21.40;52.80;;;;;;5098542;28;20114;-38
2021/05/04 03:31:02;;;;;;;0.50;0.50;;;21.30;53.00;;;;;;5095666;28;20040;-36
2021/05/04 03:33:28;;;;;;;0.63;0.50;;;21.30;53.10;;;;;;5098396;28;20044;-34
2021/05/04 03:35:53;;;;;;;0.40;0.35;;;21.20;53.60;;;;;;5097972;28;20070;-32
2021/05/04 03:38:19;;;;;;;0.68;0.40;;;21.50;52.50;;;;;;5099823;28;20051;-36
2021/05/04 03:40:44;;;;;;;0.50;0.50;;;21.40;53.30;;;;;;5096056;28;20127;-36
2021/05/04 03:43:11;;;;;;;0.45;0.30;;;21.50;52.20;;;;;;5082471;28;20509;-38
2021/05/04 03:45:37;;;;;;;2.90;0.40;;;21.40;52.80;;;;;;5096331;28;20048;-39
2021/05/04 03:48:03;;;;;;;0.88;0.40;;;21.30;52.90;;;;;;5100730;28;20097;-37
2021/05/04 03:50:28;;;;;;;1.10;0.40;;;21.30;53.10;;;;;;5093661;28;20067;-38
2021/05/04 03:52:56;;;;;;;0.70;0.35;;;21.30;53.10;;;;;;5073235;28;20052;-37
2021/05/04 03:55:22;;;;;;;1.27;0.38;;;21.30;53.30;;;;;;5095006;28;20063;-38
2021/05/04 03:57:48;;;;;;;0.32;0.32;;;21.40;52.60;;;;;;5095962;28;20490;-36
2021/05/04 04:00:14;;;;;;;0.30;0.30;;;21.50;52.60;;;;;;5097439;28;20089;-39
2021/05/04 04:02:40;;;;;;;0.40;0.40;;;21.30;52.80;;;;;;5077166;28;20040;-39
2021/05/04 04:05:06;;;;;;;0.45;0.40;;;21.30;52.80;;;;;;5094607;28;20109;-41
2021/05/04 04:07:32;;;;;;;0.40;0.30;;;21.30;52.70;;;;;;5096185;28;20044;-35
2021/05/04 04:09:58;;;;;;;0.40;0.40;;;21.20;52.80;;;;;;5094380;28;20390;-38
2021/05/04 04:12:24;;;;;;;0.40;0.40;;;21.20;53.00;;;;;;5096724;28;20536;-32
2021/05/04 04:14:50;;;;;;;0.40;0.30;;;21.20;53.40;;;;;;5095381;28;20501;-37
2021/05/04 04:17:16;;;;;;;0.35;0.35;;;21.20;53.30;;;;;;5096421;28;20043;-33
2021/05/04 04:19:41;;;;;;;0.38;0.38;;;21.30;53.00;;;;;;5079201;28;20426;-36
2021/05/04 04:22:07;;;;;;;0.22;0.22;;;21.20;53.10;;;;;;5098318;28;20043;-41
2021/05/04 04:24:32;;;;;;;0.30;0.30;;;21.30;52.90;;;;;;5096748;28;20047;-38
2021/05/04 04:26:58;;;;;;;0.52;0.38;;;21.40;52.60;;;;;;5095702;28;20043;-35
2021/05/04 04:29:24;;;;;;;0.40;0.40;;;21.50;52.50;;;;;;5093844;28;20044;-38
2021/05/04 04:31:49;;;;;;;0.50;0.40;;;21.60;52.20;;;;;;5074351;28;20490;-43
2021/05/04 04:34:15;;;;;;;0.17;0.17;;;21.40;53.20;;;;;;5095184;28;20052;-38
2021/05/04 04:36:40;;;;;;;0.47;0.40;;;21.50;52.20;;;;;;5099584;28;20048;-36
2021/05/04 04:39:06;;;;;;;0.63;0.40;;;21.30;53.00;;;;;;5096083;28;20478;-39
2021/05/04 04:41:32;;;;;;;0.63;0.40;;;21.40;53.20;;;;;;5098063;28;20046;-38
2021/05/04 04:43:57;;;;;;;0.57;0.40;;;21.30;53.10;;;;;;5091875;28;20141;-37
2021/05/04 04:46:23;;;;;;;0.40;0.40;;;21.40;53.30;;;;;;5093778;28;20532;-37
2021/05/04 04:48:48;;;;;;;0.45;0.40;;;21.40;53.00;;;;;;5096677;28;20133;-38
2021/05/04 04:51:14;;;;;;;0.30;0.22;;;21.40;53.00;;;;;;5095423;28;20153;-39
2021/05/04 04:53:39;;;;;;;4.20;0.80;;;21.50;52.80;;;;;;5081962;28;20126;-39
2021/05/04 04:56:05;;;;;;;4.68;0.80;;;21.70;55.00;;;;;;5098588;28;20044;-35
2021/05/04 04:58:31;;;;;;;3.15;1.05;;;21.70;57.00;;;;;;5102920;28;20048;-43
2021/05/04 05:00:56;;;;;;;2.13;0.57;;;21.70;55.80;;;;;;5085894;28;20478;-41
2021/05/04 05:03:24;;;;;;;5.78;0.90;;;21.70;54.70;;;;;;5083432;28;20101;-42
2021/05/04 05:05:51;;;;;;;1.40;0.80;;;21.60;55.40;;;;;;5096437;28;20039;-43
2021/05/04 05:08:16;;;;;;;1.52;0.60;;;21.80;54.30;;;;;;5093790;28;20044;-39
2021/05/04 05:10:42;;;;;;;0.77;0.30;;;22.10;53.10;;;;;;5097834;28;20063;-42
2021/05/04 05:13:08;;;;;;;3.00;0.40;;;22.30;52.10;;;;;;5097404;28;20410;-41
2021/05/04 05:15:38;;;;;;;3.28;0.50;;;22.60;51.40;;;;;;5091662;28;20092;-41
2021/05/04 05:18:05;;;;;;;1.00;0.43;;;22.50;51.90;;;;;;5102306;28;20043;-39
2021/05/04 05:20:34;;;;;;;0.73;0.50;;;22.50;51.50;;;;;;5094540;28;20064;-40
2021/05/04 05:22:59;;;;;;;4.97;0.50;;;22.30;52.10;;;;;;5093384;28;21729;-39
2021/05/04 05:25:25;;;;;;;5.40;0.57;;;22.10;52.80;;;;;;5097870;28;20070;-40
2021/05/04 05:27:51;;;;;;;8.57;0.63;;;21.80;53.10;;;;;;4738210;28;10000082;-41
2021/05/04 05:30:16;;;;;;;3.42;0.60;;;21.70;53.00;;;;;;5071029;28;20097;-40
2021/05/04 05:32:42;;;;;;;3.65;0.77;;;21.60;53.40;;;;;;5091288;28;20055;-53
2021/05/04 05:35:08;;;;;;;2.42;0.60;;;21.60;53.40;;;;;;5090550;28;20058;-42
2021/05/04 05:37:34;;;;;;;2.35;0.70;;;21.60;53.30;;;;;;5093471;28;20529;-43
2021/05/04 05:40:00;;;;;;;1.75;0.80;;;21.70;53.10;;;;;;5094678;28;20048;-39
2021/05/04 05:42:25;;;;;;;5.78;1.10;;;21.60;53.20;;;;;;5095791;28;20090;-40
2021/05/04 05:44:51;;;;;;;2.63;0.60;;;21.50;53.40;;;;;;5097772;28;20510;-41
2021/05/04 05:47:16;;;;;;;2.00;0.65;;;21.40;53.50;;;;;;5094994;28;20077;-40
2021/05/04 05:49:42;;;;;;;5.30;1.15;;;21.50;53.90;;;;;;5093521;28;20076;-39
2021/05/04 05:52:09;;;;;;;5.80;1.20;;;21.30;53.50;;;;;;5084646;28;20040;-38
2021/05/04 05:54:35;;;;;;;4.18;1.20;;;21.20;53.70;;;;;;5098871;28;20051;-44
2021/05/04 05:57:00;;;;;;;3.45;0.85;;;21.10;54.00;;;;;;5097779;28;20080;-38
2021/05/04 05:59:26;;;;;;;5.45;0.98;;;21.20;54.00;;;;;;5093634;28;20047;-40
2021/05/04 06:01:51;;;;;;;2.33;0.70;;;21.20;53.40;;;;;;5094427;28;20036;-39
2021/05/04 06:04:17;;;;;;;4.13;1.05;;;21.40;52.90;;;;;;5101652;28;20399;-44
2021/05/04 06:06:42;;;;;;;5.88;0.98;;;21.50;53.10;;;;;;5097013;28;20647;-37
2021/05/04 06:09:08;;;;;;;2.85;0.65;;;21.50;52.30;;;;;;5097378;28;20047;-38
2021/05/04 06:11:34;;;;;;;2.17;1.13;;;21.80;52.10;;;;;;5098743;28;20466;-38
2021/05/04 06:13:59;;;;;;;1.65;0.70;;;21.60;52.10;;;;;;5094316;28;20055;-36
2021/05/04 06:16:25;;;;;;;5.45;0.80;;;21.70;52.30;;;;;;5096512;28;20051;-39
2021/05/04 06:18:50;;;;;;;3.47;0.90;;;21.50;52.70;;;;;;5096968;28;20529;-37
2021/05/04 06:21:16;;;;;;;1.58;0.88;;;21.40;52.80;;;;;;5097119;28;20429;-38
2021/05/04 06:23:42;;;;;;;1.88;0.70;;;21.20;53.70;;;;;;5093834;28;20089;-36
2021/05/04 06:26:07;;;;;;;2.60;0.90;;;21.10;53.20;;;;;;5090927;28;20078;-39
2021/05/04 06:28:34;;;;;;;2.95;0.68;;;21.10;53.40;;;;;;5095265;28;20040;-42
2021/05/04 06:30:59;;;;;;;2.55;0.90;;;21.10;53.40;;;;;;5096699;28;20044;-39
2021/05/04 06:33:25;;;;;;;1.13;0.63;;;21.10;53.60;;;;;;5095628;28;20048;-39
2021/05/04 06:35:50;;;;;;;2.08;0.90;;;21.00;53.60;;;;;;5096913;28;20088;-42
2021/05/04 06:38:18;;;;;;;2.03;1.02;;;21.10;53.40;;;;;;5095535;28;20502;-28
2021/05/04 06:40:45;;;;;;;3.45;0.70;;;21.10;53.50;;;;;;5090822;28;20044;-36
2021/05/04 06:43:10;;;;;;;1.20;0.70;;;21.10;53.60;;;;;;5101664;28;20036;-39
2021/05/04 06:45:36;;;;;;;2.47;1.00;;;21.10;53.40;;;;;;5097913;28;20044;-37
2021/05/04 06:48:02;;;;;;;1.27;0.90;;;21.10;53.30;;;;;;5095984;28;20046;-38
2021/05/04 06:50:28;;;;;;;1.13;0.70;;;21.20;53.00;;;;;;5095119;28;20043;-38
2021/05/04 06:52:53;;;;;;;1.35;0.88;;;21.20;53.00;;;;;;5092435;28;20051;-39
2021/05/04 06:55:19;;;;;;;1.17;0.88;;;21.10;53.30;;;;;;5095720;28;20058;-38
2021/05/04 06:57:45;;;;;;;1.42;0.47;;;21.10;53.50;;;;;;5101380;28;20501;-39
2021/05/04 07:00:11;;;;;;;2.05;0.93;;;21.10;53.40;;;;;;5096042;28;20039;-38
2021/05/04 07:02:36;;;;;;;1.40;0.80;;;21.10;53.40;;;;;;5093549;28;20039;-39
2021/05/04 07:05:04;;;;;;;1.27;0.82;;;21.20;53.10;;;;;;5094558;28;20113;-40
2021/05/04 07:07:29;;;;;;;2.00;0.70;;;21.30;52.80;;;;;;5094241;28;20040;-40
2021/05/04 07:09:55;;;;;;;1.77;0.75;;;21.20;53.10;;;;;;5100878;28;20079;-42
2021/05/04 07:12:20;;;;;;;2.67;0.82;;;21.10;53.30;;;;;;5098919;28;20122;-41
2021/05/04 07:14:46;;;;;;;1.55;0.70;;;21.10;53.40;;;;;;5099543;28;20051;-43
2021/05/04 07:17:11;;;;;;;1.40;0.95;;;21.00;53.40;;;;;;5096509;28;20528;-42
2021/05/04 07:19:39;;;;;;;3.72;0.85;;;21.00;53.40;;;;;;5097976;28;20470;-47
2021/05/04 07:22:07;;;;;;;1.45;0.90;;;21.00;53.40;;;;;;5098193;28;20044;-41
2021/05/04 07:24:33;;;;;;;1.25;0.90;;;21.20;52.70;;;;;;5093808;28;20143;-41
2021/05/04 07:26:58;;;;;;;2.83;0.88;;;21.40;52.50;;;;;;5079031;28;20158;-43
2021/05/04 07:29:24;;;;;;;1.90;0.93;;;21.20;52.70;;;;;;5098328;28;20035;-39
2021/05/04 07:31:49;;;;;;;1.95;0.77;;;21.20;53.10;;;;;;5091116;28;20406;-41
2021/05/04 07:34:15;;;;;;;1.05;0.88;;;21.10;53.20;;;;;;5095929;28;20135;-40
2021/05/04 07:36:41;;;;;;;2.47;1.05;;;21.00;53.30;;;;;;5096390;28;20043;-39
2021/05/04 07:39:06;;;;;;;1.02;0.80;;;21.00;53.30;;;;;;5099540;28;20112;-38
2021/05/04 07:41:32;;;;;;;1.15;1.05;;;21.00;53.30;;;;;;5078949;28;20076;-39
2021/05/04 07:43:58;;;;;;;1.80;1.05;;;21.00;53.20;;;;;;5099113;28;20047;-39
2021/05/04 07:46:23;;;;;;;1.33;1.02;;;21.00;53.20;;;;;;5077321;28;20103;-39
2021/05/04 07:48:49;;;;;;;1.65;0.93;;;21.00;53.10;;;;;;5099897;28;20061;-41
2021/05/04 07:51:14;;;;;;;2.33;0.98;;;21.00;53.10;;;;;;5095200;28;20063;-40
2021/05/04 07:53:40;;;;;;;1.35;1.08;;;21.00;53.10;;;;;;5097495;28;20062;-37
2021/05/04 07:56:06;;;;;;;2.67;1.17;;;21.00;53.00;;;;;;5092015;28;20466;-40
2021/05/04 07:58:31;;;;;;;1.13;0.90;;;21.10;53.10;;;;;;5094383;28;20054;-36
2021/05/04 08:00:57;;;;;;;1.73;0.93;;;21.10;53.10;;;;;;5094544;28;20043;-39
2021/05/04 08:03:23;;;;;;;2.20;1.02;;;21.10;52.90;;;;;;5095396;28;20414;-39
2021/05/04 08:05:52;;;;;;;4.55;1.38;;;21.20;52.40;;;;;;5091689;28;20052;-40
2021/05/04 08:08:17;;;;;;;1.35;0.93;;;21.20;52.60;;;;;;5091167;28;20085;-41
2021/05/04 08:10:43;;;;;;;2.45;1.10;;;21.10;52.80;;;;;;5100286;28;20074;-38
2021/05/04 08:13:08;;;;;;;1.42;1.02;;;21.10;53.60;;;;;;5090519;28;20051;-38
2021/05/04 08:15:35;;;;;;;1.23;0.82;;;21.00;52.90;;;;;;5094799;28;20040;-36
2021/05/04 08:18:04;;;;;;;2.95;0.93;;;21.20;52.50;;;;;;5097904;28;20122;-39
2021/05/04 08:20:32;;;;;;;1.00;0.80;;;21.10;52.50;;;;;;5091086;28;20118;-36
2021/05/04 08:22:58;;;;;;;1.63;0.90;;;21.30;52.10;;;;;;5094423;28;20106;-38
2021/05/04 08:25:24;;;;;;;2.35;1.50;;;21.40;52.00;;;;;;5095463;28;20048;-38
2021/05/04 08:27:50;;;;;;;1.80;1.00;;;21.30;52.20;;;;;;5095921;28;20046;-41
2021/05/04 08:30:16;;;;;;;1.83;1.10;;;21.20;52.40;;;;;;5099912;28;20150;-41
2021/05/04 08:32:41;;;;;;;1.30;1.00;;;21.10;52.60;;;;;;5074913;28;20404;-37
2021/05/04 08:35:07;;;;;;;2.80;1.33;;;21.10;52.70;;;;;;5092709;28;20123;-39
2021/05/04 08:37:33;;;;;;;1.33;0.93;;;21.10;52.80;;;;;;5072061;28;20048;-41
2021/05/04 08:39:58;;;;;;;1.92;1.15;;;21.10;52.90;;;;;;5096601;28;20061;-39
2021/05/04 08:42:24;;;;;;;1.63;1.00;;;21.00;52.80;;;;;;5098444;28;20409;-37
2021/05/04 08:44:52;;;;;;;1.30;0.88;;;21.10;52.60;;;;;;5098904;28;20122;-39
2021/05/04 08:47:18;;;;;;;1.23;1.00;;;21.10;52.60;;;;;;5093812;28;20035;-42
2021/05/04 08:49:44;;;;;;;1.55;1.10;;;21.20;52.40;;;;;;5079276;28;20374;-42
2021/05/04 08:52:09;;;;;;;1.23;1.05;;;21.20;52.40;;;;;;5095323;28;20047;-39
2021/05/04 08:54:35;;;;;;;2.00;1.10;;;21.10;52.70;;;;;;5073995;28;20580;-43
2021/05/04 08:57:01;;;;;;;2.50;1.35;;;21.00;52.70;;;;;;5090961;28;20101;-41
2021/05/04 08:59:26;;;;;;;1.88;0.95;;;21.00;52.80;;;;;;5075977;28;20040;-40
2021/05/04 09:01:52;;;;;;;2.58;1.10;;;21.00;52.80;;;;;;5094514;28;20055;-41
2021/05/04 09:04:48;;;;;;;1.83;1.10;;;21.00;52.90;;;;;;5097670;28;20044;-40
2021/05/04 09:07:33;;;;;;;1.42;1.33;;;21.00;52.80;;;;;;5090591;28;20036;-41
2021/05/04 09:21:32;;;;;;;2.08;0.90;;;21.00;52.90;;;;;;5100625;28;20106;-43
2021/05/04 09:23:58;;;;;;;2.25;1.17;;;21.20;52.50;;;;;;5097281;28;20536;-43
2021/05/04 09:26:35;;;;;;;2.38;1.25;;;21.20;52.30;;;;;;5076023;28;20016;-42
2021/05/04 09:29:06;;;;;;;1.65;1.30;;;21.50;51.90;;;;;;5101972;28;20031;-43
2021/05/04 09:31:31;;;;;;;1.67;1.05;;;21.40;52.20;;;;;;5084081;28;20031;-42
2021/05/04 09:34:13;;;;;;;1.75;1.25;;;21.50;52.50;;;;;;5080655;28;20032;-43
2021/05/04 09:36:51;;;;;;;2.58;1.40;;;21.60;51.30;;;;;;5101236;28;20504;-39
2021/05/04 09:39:30;;;;;;;2.30;1.35;;;21.30;52.00;;;;;;5104670;28;20123;-39
2021/05/04 09:41:57;;;;;;;4.75;1.48;;;21.30;52.20;;;;;;5087704;28;20062;-40
2021/05/04 09:44:39;;;;;;;3.00;1.40;;;21.30;52.20;;;;;;5105771;28;20032;-44
2021/05/04 09:47:05;;;;;;;3.28;1.40;;;21.40;51.80;;;;;;5102717;28;20108;-40
2021/05/04 09:49:37;;;;;;;3.30;1.60;;;21.30;51.80;;;;;;5101983;28;20036;-39
2021/05/04 09:55:00;;;;;;;3.15;1.73;;;21.30;51.80;;;;;;5105150;28;20497;-40
2021/05/04 09:57:38;;;;;;;1.70;1.40;;;21.20;51.70;;;;;;5088607;28;20444;-41
2021/05/04 10:00:08;;;;;;;2.08;1.15;;;21.20;52.00;;;;;;5099985;28;20114;-42
2021/05/04 10:02:35;;;;;;;3.22;1.85;;;21.20;52.00;;;;;;5095398;28;20024;-41
2021/05/04 10:05:03;;;;;;;2.78;1.80;;;21.30;51.50;;;;;;5098818;28;20089;-42
2021/05/04 10:07:32;;;;;;;2.47;1.27;;;21.20;51.80;;;;;;5098827;28;20103;-41
2021/05/04 10:09:59;;;;;;;2.15;1.52;;;21.20;51.70;;;;;;5101022;28;20059;-37
2021/05/04 10:12:24;;;;;;;3.78;1.42;;;21.20;51.80;;;;;;5098137;28;20016;-39
2021/05/04 10:14:53;;;;;;;2.53;1.30;;;21.30;51.20;;;;;;5067245;28;20023;-40
2021/05/04 10:17:19;;;;;;;1.50;1.20;;;21.20;51.50;;;;;;5084449;28;20032;-40
2021/05/04 10:19:45;;;;;;;6.40;1.70;;;21.20;51.60;;;;;;5098423;28;20553;-39
2021/05/04 10:22:11;;;;;;;2.42;1.42;;;21.10;51.50;;;;;;5097460;28;20032;-38
2021/05/04 10:24:41;;;;;;;1.75;1.23;;;21.10;51.70;;;;;;4906624;28;10000754;-40
2021/05/04 10:27:08;;;;;;;1.38;1.23;;;21.20;51.40;;;;;;5095810;28;20297;-39
2021/05/04 10:29:34;;;;;;;2.97;1.45;;;21.20;51.50;;;;;;5077168;28;20394;-39
2021/05/04 10:32:00;;;;;;;4.15;1.42;;;21.20;52.20;;;;;;5086351;28;20036;-39
2021/05/04 10:34:27;;;;;;;1.95;1.30;;;21.20;51.70;;;;;;5081329;28;20035;-42
2021/05/04 10:36:53;;;;;;;7.35;1.40;;;21.20;51.90;;;;;;5100316;28;20134;-38
2021/05/04 10:39:36;;;;;;;3.45;1.67;;;21.10;52.00;;;;;;5078759;28;20031;-39
2021/05/04 10:42:01;;;;;;;1.70;1.00;;;21.10;52.00;;;;;;5102405;28;20031;-35
2021/05/04 10:44:27;;;;;;;1.40;1.30;;;21.10;52.50;;;;;;5101771;28;20024;-38
2021/05/04 10:46:54;;;;;;;1.58;1.27;;;21.00;53.10;;;;;;5086634;28;20024;-37
2021/05/04 10:49:39;;;;;;;2.42;1.30;;;21.00;52.40;;;;;;5085405;28;21475;-39
2021/05/04 10:52:05;;;;;;;3.05;1.40;;;21.00;52.50;;;;;;5095920;28;20035;-47
2021/05/04 10:54:51;;;;;;;1.88;1.30;;;21.00;53.10;;;;;;5082803;28;20080;-43
2021/05/04 10:57:17;;;;;;;1.45;0.90;;;21.10;52.90;;;;;;5082639;28;20036;-38
2021/05/04 10:59:45;;;;;;;2.95;1.55;;;21.00;53.80;;;;;;5093748;28;20034;-50
2021/05/04 11:02:13;;;;;;;2.20;1.25;;;21.10;54.40;;;;;;5099623;28;20098;-44
2021/05/04 11:04:40;;;;;;;7.60;1.60;;;21.20;53.10;;;;;;5101201;28;20040;-43
2021/05/04 11:07:06;;;;;;;5.43;1.70;;;21.20;54.50;;;;;;5091782;28;20151;-41
2021/05/04 11:09:31;;;;;;;3.47;1.02;;;21.20;53.50;;;;;;5046940;28;20027;-42
2021/05/04 11:11:57;;;;;;;1.98;1.08;;;21.40;53.60;;;;;;5096153;28;20494;-45
2021/05/04 11:14:27;;;;;;;4.03;1.50;;;21.30;53.50;;;;;;5081182;28;20026;-42
2021/05/04 11:16:53;;;;;;;1.23;0.98;;;21.30;53.90;;;;;;5071033;28;20022;-45
2021/05/04 11:19:42;;;;;;;1.25;1.00;;;21.30;53.50;;;;;;5097382;28;20091;-42
2021/05/04 11:22:19;;;;;;;1.38;1.17;;;21.30;53.90;;;;;;5097183;28;20081;-44
2021/05/04 11:24:49;;;;;;;3.38;1.20;;;21.40;53.80;;;;;;5096653;28;20125;-42
2021/05/04 11:27:18;;;;;;;2.90;0.90;;;21.40;52.70;;;;;;5101328;28;20074;-42
2021/05/04 11:29:45;;;;;;;2.13;0.98;;;21.40;53.10;;;;;;5099860;28;20069;-42
2021/05/04 11:32:15;;;;;;;5.43;1.20;;;21.60;52.50;;;;;;5092741;28;20047;-40
2021/05/04 11:34:40;;;;;;;1.85;1.25;;;21.50;53.30;;;;;;5102866;28;20106;-44
2021/05/04 11:37:10;;;;;;;2.83;0.90;;;21.40;53.50;;;;;;5095452;28;20127;-40
2021/05/04 11:39:59;;;;;;;2.53;1.08;;;21.30;53.80;;;;;;5096612;28;20031;-40
2021/05/04 11:42:44;;;;;;;5.05;1.10;;;21.30;54.10;;;;;;5100260;28;20077;-41
2021/05/04 11:45:20;;;;;;;2.38;1.10;;;21.30;54.10;;;;;;5084328;28;20023;-41
2021/05/04 11:47:50;;;;;;;2.25;1.05;;;21.30;53.90;;;;;;5101594;28;20092;-39
2021/05/04 11:50:19;;;;;;;3.08;1.30;;;21.20;54.90;;;;;;5101146;28;20059;-41
2021/05/04 11:52:49;;;;;;;2.65;1.00;;;21.30;54.30;;;;;;5100389;28;20127;-41
2021/05/04 11:55:16;;;;;;;1.52;0.88;;;21.30;54.10;;;;;;5105653;28;20023;-42
2021/05/04 11:57:43;;;;;;;4.40;0.90;;;21.20;54.30;;;;;;5105251;28;20023;-40
2021/05/04 12:00:15;;;;;;;1.38;1.00;;;21.20;54.40;;;;;;5083450;28;20383;-42
2021/05/04 12:02:40;;;;;;;3.90;1.10;;;21.20;53.60;;;;;;5096139;28;20506;-42
2021/05/04 12:05:07;;;;;;;2.33;0.90;;;21.20;54.00;;;;;;5100665;28;20035;-42
2021/05/04 12:07:43;;;;;;;3.05;1.27;;;21.20;53.80;;;;;;5078939;28;20089;-40
2021/05/04 12:10:15;;;;;;;2.03;1.27;;;21.10;53.90;;;;;;5098468;28;20481;-39
2021/05/04 12:12:47;;;;;;;2.40;0.90;;;21.10;53.90;;;;;;5097133;28;20051;-41
2021/05/04 12:15:14;;;;;;;2.45;1.30;;;21.00;54.00;;;;;;5099960;28;20158;-41
2021/05/04 12:17:41;;;;;;;1.30;1.00;;;21.00;54.00;;;;;;5099214;28;20024;-41
2021/05/04 12:20:16;;;;;;;2.10;1.00;;;21.00;53.90;;;;;;5098889;28;20112;-41
2021/05/04 12:22:49;;;;;;;1.48;0.90;;;21.00;53.90;;;;;;5095965;28;20043;-39
2021/05/04 12:25:22;;;;;;;2.45;0.90;;;21.00;53.90;;;;;;5098256;28;20032;-39
2021/05/04 12:27:47;;;;;;;2.22;1.23;;;21.10;53.90;;;;;;5098435;28;20509;-41
2021/05/04 12:30:15;;;;;;;2.95;1.20;;;21.00;53.80;;;;;;5066118;28;20028;-38
2021/05/04 12:32:40;;;;;;;2.85;1.20;;;21.00;53.80;;;;;;5078239;28;20020;-41
2021/05/04 12:35:22;;;;;;;1.42;1.00;;;21.00;53.80;;;;;;5109419;28;20027;-41
2021/05/04 12:37:49;;;;;;;1.48;1.20;;;21.00;53.80;;;;;;5102950;28;20054;-40
2021/05/04 12:40:17;;;;;;;1.27;1.00;;;21.00;53.90;;;;;;5102619;28;20398;-42
2021/05/04 12:42:44;;;;;;;1.45;1.13;;;21.00;53.80;;;;;;5105391;28;20071;-40
2021/05/04 12:45:11;;;;;;;1.60;0.90;;;21.00;53.80;;;;;;5101155;28;20038;-42
2021/05/04 12:47:52;;;;;;;1.63;0.90;;;21.00;53.80;;;;;;5084842;28;20366;-42
2021/05/04 12:50:28;;;;;;;1.85;0.88;;;21.00;53.80;;;;;;5108734;28;20065;-42
2021/05/04 12:52:54;;;;;;;2.63;1.00;;;21.00;53.80;;;;;;5104331;28;20114;-41
2021/05/04 12:55:19;;;;;;;1.60;1.08;;;21.00;54.00;;;;;;5105720;28;20165;-42
2021/05/04 12:57:45;;;;;;;2.15;1.00;;;21.00;53.80;;;;;;5087617;28;20028;-41
2021/05/04 13:00:15;;;;;;;1.48;1.10;;;21.00;53.80;;;;;;5102712;28;20399;-39